createdAt,value
2019-04-03T00:01:12.797Z,4.40
2019-04-03T00:03:44.381Z,4.40
2019-04-03T00:06:14.870Z,4.40
2019-04-03T00:08:45.514Z,4.50
2019-04-03T00:11:16.224Z,4.50
2019-04-03T00:13:46.720Z,4.50
2019-04-03T00:16:18.398Z,4.60
2019-04-03T00:18:48.992Z,4.60
2019-04-03T00:21:20.249Z,4.70
2019-04-03T00:23:52.649Z,4.60
2019-04-03T00:26:23.328Z,4.60
2019-04-03T00:28:53.786Z,4.60
2019-04-03T00:31:24.253Z,4.50
2019-04-03T00:33:54.940Z,4.50
2019-04-03T00:36:26.510Z,4.50
2019-04-03T00:38:57.106Z,4.50
2019-04-03T00:41:27.765Z,4.40
2019-04-03T00:43:58.360Z,4.50
2019-04-03T00:46:28.988Z,4.40
2019-04-03T00:48:59.629Z,4.40
2019-04-03T00:51:30.151Z,4.40
2019-04-03T00:54:00.780Z,4.40
2019-04-03T00:56:32.331Z,4.40
2019-04-03T00:59:02.845Z,4.30
2019-04-03T01:01:33.394Z,4.30
2019-04-03T01:04:04.180Z,4.30
2019-04-03T01:06:34.941Z,4.30
2019-04-03T01:09:07.240Z,4.20
2019-04-03T01:11:37.819Z,4.20
2019-04-03T01:14:08.297Z,4.10
2019-04-03T01:16:38.868Z,4.00
2019-04-03T01:19:09.450Z,4.10
2019-04-03T01:21:40.143Z,4.10
2019-04-03T01:24:10.777Z,4.10
2019-04-03T01:26:41.308Z,4.10
2019-04-03T01:29:12.584Z,4.00
2019-04-03T01:31:44.924Z,4.00
2019-04-03T01:34:17.820Z,4.00
2019-04-03T01:36:48.657Z,4.00
2019-04-03T01:39:21.075Z,4.00
2019-04-03T01:41:52.076Z,4.00
2019-04-03T01:44:24.787Z,4.10
2019-04-03T01:46:57.307Z,4.10
2019-04-03T01:49:28.399Z,4.00
2019-04-03T01:52:00.836Z,4.00
2019-04-03T01:54:33.281Z,3.80
2019-04-03T01:57:06.005Z,3.70
2019-04-03T01:59:37.540Z,3.70
2019-04-03T02:02:09.703Z,3.60
2019-04-03T02:04:41.987Z,3.60
2019-04-03T02:07:14.889Z,3.60
2019-04-03T02:09:46.598Z,3.50
2019-04-03T02:12:17.949Z,3.50
2019-04-03T02:14:51.562Z,3.40
2019-04-03T02:17:24.188Z,3.30
2019-04-03T02:19:56.372Z,3.30
2019-04-03T02:22:29.224Z,3.30
2019-04-03T02:25:01.887Z,3.30
2019-04-03T02:27:33.273Z,3.20
2019-04-03T02:30:05.408Z,3.30
2019-04-03T02:32:36.225Z,3.30
2019-04-03T02:35:09.533Z,3.30
2019-04-03T02:37:40.039Z,3.30
2019-04-03T02:40:11.023Z,3.30
2019-04-03T02:42:42.430Z,3.30
2019-04-03T02:45:14.575Z,3.30
2019-04-03T02:47:45.508Z,3.40
2019-04-03T02:50:23.631Z,3.50
2019-04-03T02:52:57.994Z,3.50
2019-04-03T02:55:28.964Z,3.40
2019-04-03T02:57:59.586Z,3.30
2019-04-03T03:00:33.152Z,3.40
2019-04-03T03:03:02.825Z,3.50
2019-04-03T03:05:33.478Z,3.50
2019-04-03T03:08:04.103Z,3.60
2019-04-03T03:10:34.852Z,3.50
2019-04-03T03:13:05.518Z,3.40
2019-04-03T03:15:36.882Z,3.40
2019-04-03T03:18:07.462Z,3.30
2019-04-03T03:20:40.825Z,3.30
2019-04-03T03:23:12.229Z,3.30
2019-04-03T03:25:43.296Z,3.40
2019-04-03T03:28:15.485Z,3.40
2019-04-03T03:30:57.878Z,3.30
2019-04-03T03:33:29.837Z,3.30
2019-04-03T03:35:53.986Z,3.20
2019-04-03T03:38:27.792Z,3.20
2019-04-03T03:40:57.758Z,3.30
2019-04-03T03:43:28.799Z,3.20
2019-04-03T03:46:00.085Z,3.10
2019-04-03T03:48:30.877Z,3.10
2019-04-03T03:51:03.373Z,3.00
2019-04-03T03:53:34.622Z,2.80
2019-04-03T03:56:06.558Z,2.80
2019-04-03T03:58:37.863Z,2.80
2019-04-03T04:01:08.752Z,2.90
2019-04-03T04:03:41.896Z,3.10
2019-04-03T04:06:13.597Z,3.20
2019-04-03T04:08:45.384Z,3.10
2019-04-03T04:11:16.488Z,3.10
2019-04-03T04:13:48.513Z,3.10
2019-04-03T04:16:23.151Z,3.10
2019-04-03T04:18:57.224Z,3.10
2019-04-03T04:21:27.045Z,3.10
2019-04-03T04:23:57.895Z,3.10
2019-04-03T04:26:31.278Z,3.20
2019-04-03T04:29:01.215Z,3.30
2019-04-03T04:31:33.037Z,3.30
2019-04-03T04:34:04.159Z,3.40
2019-04-03T04:36:34.877Z,3.40
2019-04-03T04:39:07.932Z,3.50
2019-04-03T04:41:38.657Z,3.60
2019-04-03T04:44:09.956Z,3.60
2019-04-03T04:46:43.691Z,3.60
2019-04-03T04:49:13.511Z,3.60
2019-04-03T04:51:45.048Z,3.60
2019-04-03T04:54:15.737Z,3.60
2019-04-03T04:56:49.236Z,3.60
2019-04-03T04:59:19.844Z,3.70
2019-04-03T05:01:50.613Z,3.70
2019-04-03T05:04:23.278Z,3.80
2019-04-03T05:06:54.169Z,4.00
2019-04-03T05:09:25.239Z,4.00
2019-04-03T05:11:56.339Z,4.10
2019-04-03T05:14:27.199Z,4.10
2019-04-03T05:16:58.109Z,4.30
2019-04-03T05:19:30.823Z,4.30
2019-04-03T05:22:01.508Z,4.40
2019-04-03T05:24:32.113Z,4.40
2019-04-03T05:27:03.403Z,4.50
2019-04-03T05:29:35.602Z,4.50
2019-04-03T05:32:06.519Z,4.60
2019-04-03T05:34:38.773Z,4.70
2019-04-03T05:37:11.457Z,4.70
2019-04-03T05:39:41.736Z,4.70
2019-04-03T05:42:12.317Z,4.80
2019-04-03T05:44:43.890Z,4.90
2019-04-03T05:47:14.966Z,5.00
2019-04-03T05:49:47.107Z,5.10
2019-04-03T05:52:17.915Z,5.10
2019-04-03T05:54:48.926Z,5.20
2019-04-03T05:57:19.779Z,5.30
2019-04-03T05:59:59.825Z,5.40
2019-04-03T06:02:22.987Z,5.40
2019-04-03T06:04:54.048Z,5.50
2019-04-03T06:07:24.965Z,5.60
2019-04-03T06:09:58.437Z,5.70
2019-04-03T06:12:28.254Z,5.70
2019-04-03T06:14:59.789Z,5.80
2019-04-03T06:17:31.838Z,5.90
2019-04-03T06:20:03.228Z,5.90
2019-04-03T06:22:33.818Z,6.00
2019-04-03T06:25:04.889Z,6.10
2019-04-03T06:27:35.624Z,6.10
2019-04-03T06:30:07.364Z,6.20
2019-04-03T06:32:38.177Z,6.30
2019-04-03T06:35:09.037Z,6.40
2019-04-03T06:37:41.618Z,6.50
2019-04-03T06:40:13.176Z,6.50
2019-04-03T06:42:45.620Z,6.60
2019-04-03T06:45:16.371Z,6.60
2019-04-03T06:47:46.975Z,6.70
2019-04-03T06:50:17.953Z,6.90
2019-04-03T06:52:53.025Z,6.90
2019-04-03T06:55:25.336Z,7.00
2019-04-03T06:57:56.508Z,7.00
2019-04-03T07:00:27.098Z,7.00
2019-04-03T07:03:03.973Z,7.10
2019-04-03T07:05:35.226Z,7.20
2019-04-03T07:08:06.147Z,7.30
2019-04-03T07:10:40.176Z,7.40
2019-04-03T07:13:09.970Z,7.50
2019-04-03T07:15:40.658Z,7.60
2019-04-03T07:18:11.503Z,7.70
2019-04-03T07:20:45.717Z,7.80
2019-04-03T07:23:16.714Z,7.90
2019-04-03T07:25:47.455Z,8.00
2019-04-03T07:28:18.052Z,8.10
2019-04-03T07:30:48.658Z,8.30
2019-04-03T07:33:19.726Z,8.30
2019-04-03T07:35:50.488Z,8.40
2019-04-03T07:38:22.218Z,8.40
2019-04-03T07:40:53.466Z,8.50
2019-04-03T07:43:26.350Z,8.60
2019-04-03T07:45:56.389Z,8.70
2019-04-03T07:48:27.320Z,8.80
2019-04-03T07:50:58.263Z,8.90
2019-04-03T07:53:29.144Z,9.00
2019-04-03T07:55:59.920Z,9.10
2019-04-03T07:58:31.608Z,9.20
2019-04-03T08:01:02.785Z,9.30
2019-04-03T08:03:34.976Z,9.40
2019-04-03T08:06:05.724Z,9.50
2019-04-03T08:08:37.193Z,9.60
2019-04-03T08:11:07.976Z,9.70
2019-04-03T08:13:38.777Z,9.80
2019-04-03T08:16:09.366Z,9.90
2019-04-03T08:18:40.971Z,9.90
2019-04-03T08:21:11.531Z,10.00
2019-04-03T08:23:42.080Z,10.20
2019-04-03T08:26:12.722Z,10.30
2019-04-03T08:28:43.618Z,10.40
2019-04-03T08:31:14.376Z,10.50
2019-04-03T08:33:45.226Z,10.60
2019-04-03T08:36:24.063Z,10.70
2019-04-03T08:38:48.727Z,10.80
2019-04-03T08:41:19.908Z,11.00
2019-04-03T08:43:50.756Z,11.10
2019-04-03T08:46:21.583Z,11.30
2019-04-03T08:48:54.312Z,11.40
2019-04-03T08:51:24.888Z,11.60
2019-04-03T08:53:55.677Z,11.70
2019-04-03T08:56:27.511Z,11.80
2019-04-03T08:58:59.303Z,11.90
2019-04-03T09:01:37.045Z,11.80
2019-04-03T09:04:10.110Z,11.90
2019-04-03T09:06:41.388Z,12.00
2019-04-03T09:09:12.718Z,12.10
2019-04-03T09:11:43.558Z,12.30
2019-04-03T09:14:14.239Z,12.40
2019-04-03T09:16:44.985Z,12.40
2019-04-03T09:19:16.847Z,12.40
2019-04-03T09:21:51.006Z,12.50
2019-04-03T09:24:20.571Z,12.60
2019-04-03T09:26:51.296Z,12.70
2019-04-03T09:29:21.929Z,12.70
2019-04-03T09:31:55.872Z,12.80
2019-04-03T09:34:25.127Z,12.80
2019-04-03T09:36:55.858Z,12.80
2019-04-03T09:39:26.748Z,13.00
2019-04-03T09:41:59.850Z,13.00
2019-04-03T09:44:30.907Z,13.00
2019-04-03T09:47:03.438Z,13.10
2019-04-03T09:49:34.552Z,13.30
2019-04-03T09:52:05.281Z,13.40
2019-04-03T09:54:36.091Z,13.50
2019-04-03T09:57:06.707Z,13.60
2019-04-03T09:59:37.801Z,13.80
2019-04-03T10:02:09.526Z,14.10
2019-04-03T10:04:40.324Z,14.30
2019-04-03T10:07:10.982Z,14.40
2019-04-03T10:09:44.017Z,14.50
2019-04-03T10:12:14.965Z,14.50
2019-04-03T10:14:46.114Z,14.30
2019-04-03T10:17:17.572Z,14.20
2019-04-03T10:19:48.751Z,14.20
2019-04-03T10:22:19.696Z,14.30
2019-04-03T10:24:50.348Z,14.40
2019-04-03T10:27:21.359Z,14.50
2019-04-03T10:29:55.017Z,14.40
2019-04-03T10:32:27.182Z,14.50
2019-04-03T10:34:57.844Z,14.50
2019-04-03T10:37:29.889Z,14.50
2019-04-03T10:40:00.615Z,14.60
2019-04-03T10:42:31.871Z,14.60
2019-04-03T10:45:02.788Z,14.70
2019-04-03T10:47:41.625Z,14.90
2019-04-03T10:50:07.306Z,15.00
2019-04-03T10:52:38.143Z,15.20
2019-04-03T10:55:09.347Z,15.20
2019-04-03T10:57:40.326Z,15.20
2019-04-03T11:00:13.467Z,15.20
2019-04-03T11:02:44.316Z,15.20
2019-04-03T11:05:16.195Z,15.10
2019-04-03T11:07:48.282Z,15.20
2019-04-03T11:10:19.408Z,15.10
2019-04-03T11:12:50.116Z,15.20
2019-04-03T11:15:21.227Z,15.40
2019-04-03T11:17:51.876Z,15.50
2019-04-03T11:20:22.998Z,15.60
2019-04-03T11:23:05.387Z,15.70
2019-04-03T11:25:31.696Z,15.70
2019-04-03T11:28:05.023Z,15.70
2019-04-03T11:30:36.181Z,15.70
2019-04-03T11:33:07.436Z,15.80
2019-04-03T11:35:38.154Z,15.80
2019-04-03T11:38:20.981Z,16.00
2019-04-03T11:40:45.689Z,16.10
2019-04-03T11:43:17.951Z,16.30
2019-04-03T11:45:48.788Z,16.50
2019-04-03T11:48:27.300Z,16.50
2019-04-03T11:50:57.690Z,16.60
2019-04-03T11:53:33.049Z,16.60
2019-04-03T11:56:13.149Z,16.70
2019-04-03T11:58:43.269Z,16.80
2019-04-03T12:01:16.235Z,16.70
2019-04-03T12:03:48.285Z,16.80
2019-04-03T12:06:20.883Z,16.80
2019-04-03T12:08:51.783Z,16.90
2019-04-03T12:11:23.918Z,16.70
2019-04-03T12:13:57.661Z,16.90
2019-04-03T12:16:28.472Z,17.00
2019-04-03T12:18:59.166Z,17.00
2019-04-03T12:21:30.168Z,17.20
2019-04-03T12:24:01.122Z,17.40
2019-04-03T12:26:33.046Z,17.30
2019-04-03T12:29:07.722Z,17.40
2019-04-03T12:31:42.299Z,17.50
2019-04-03T12:34:17.330Z,17.70
2019-04-03T12:36:48.252Z,18.00
2019-04-03T12:39:29.702Z,18.10
2019-04-03T12:42:02.559Z,18.00
2019-04-03T12:44:33.236Z,17.80
2019-04-03T12:47:07.029Z,17.70
2019-04-03T12:49:36.367Z,17.80
2019-04-03T12:52:07.480Z,17.60
2019-04-03T12:54:38.085Z,17.40
2019-04-03T12:57:08.864Z,17.20
2019-04-03T12:59:40.045Z,17.30
2019-04-03T13:02:11.538Z,17.70
2019-04-03T13:04:43.659Z,17.90
2019-04-03T13:07:14.616Z,18.00
2019-04-03T13:09:45.663Z,17.70
2019-04-03T13:12:16.501Z,17.60
2019-04-03T13:14:49.064Z,17.60
2019-04-03T13:17:19.544Z,17.40
2019-04-03T13:19:51.919Z,17.10
2019-04-03T13:22:22.637Z,17.10
2019-04-03T13:24:53.413Z,17.10
2019-04-03T13:27:23.935Z,17.00
2019-04-03T13:29:54.710Z,17.10
2019-04-03T13:32:26.026Z,17.00
2019-04-03T13:34:57.156Z,16.90
2019-04-03T13:37:27.976Z,16.80
2019-04-03T13:40:01.669Z,16.70
2019-04-03T13:42:33.633Z,16.50
2019-04-03T13:45:05.045Z,16.00
2019-04-03T13:47:41.106Z,15.70
2019-04-03T13:50:12.662Z,15.60
2019-04-03T13:52:47.992Z,15.50
2019-04-03T13:55:16.474Z,15.50
2019-04-03T13:57:50.837Z,15.50
2019-04-03T14:00:23.657Z,15.50
2019-04-03T14:02:58.240Z,15.40
2019-04-03T14:05:32.244Z,15.40
2019-04-03T14:08:01.474Z,15.30
2019-04-03T14:10:34.150Z,15.30
2019-04-03T14:13:04.830Z,15.50
2019-04-03T14:15:35.721Z,15.70
2019-04-03T14:18:07.816Z,15.90
2019-04-03T14:20:39.228Z,15.90
2019-04-03T14:23:10.018Z,16.00
2019-04-03T14:25:40.907Z,16.00
2019-04-03T14:28:12.920Z,15.90
2019-04-03T14:30:45.209Z,16.00
2019-04-03T14:33:18.317Z,16.00
2019-04-03T14:35:52.534Z,16.00
2019-04-03T14:38:21.162Z,16.00
2019-04-03T14:40:51.766Z,16.10
2019-04-03T14:43:22.853Z,16.00
2019-04-03T14:45:53.846Z,16.00
2019-04-03T14:48:26.199Z,15.90
2019-04-03T14:51:00.337Z,15.80
2019-04-03T14:53:31.290Z,15.80
2019-04-03T14:56:06.326Z,15.70
2019-04-03T14:58:37.211Z,15.50
2019-04-03T15:01:08.148Z,15.30
2019-04-03T15:03:39.368Z,15.20
2019-04-03T15:06:10.396Z,15.10
2019-04-03T15:08:45.120Z,15.00
2019-04-03T15:11:15.745Z,15.00
2019-04-03T15:13:48.877Z,15.10
2019-04-03T15:16:22.149Z,15.20
2019-04-03T15:18:54.006Z,15.50
2019-04-03T15:21:29.840Z,15.70
2019-04-03T15:24:01.026Z,15.70
2019-04-03T15:26:37.367Z,15.70
2019-04-03T15:29:09.474Z,15.90
2019-04-03T15:31:46.983Z,16.00
2019-04-03T15:34:17.501Z,15.80
2019-04-03T15:36:50.589Z,15.90
2019-04-03T15:39:20.502Z,15.70
2019-04-03T15:41:51.730Z,15.50
2019-04-03T15:44:27.470Z,15.10
2019-04-03T15:47:01.171Z,14.80
2019-04-03T15:49:33.016Z,14.90
2019-04-03T15:52:03.838Z,15.30
2019-04-03T15:54:34.703Z,15.70
2019-04-03T15:57:05.792Z,15.90
2019-04-03T15:59:36.651Z,16.00
2019-04-03T16:02:09.063Z,15.60
2019-04-03T16:04:39.756Z,15.40
2019-04-03T16:07:10.719Z,15.30
2019-04-03T16:09:47.703Z,15.00
2019-04-03T16:12:19.058Z,14.50
2019-04-03T16:14:51.125Z,14.10
2019-04-03T16:17:22.649Z,13.90
2019-04-03T16:19:53.529Z,13.60
2019-04-03T16:22:24.815Z,13.20
2019-04-03T16:24:55.687Z,12.90
2019-04-03T16:27:29.135Z,12.60
2019-04-03T16:29:58.815Z,12.40
2019-04-03T16:32:29.579Z,12.10
2019-04-03T16:35:01.368Z,11.90
2019-04-03T16:37:32.515Z,11.70
2019-04-03T16:40:04.956Z,11.50
2019-04-03T16:42:37.059Z,11.30
2019-04-03T16:45:09.370Z,11.10
2019-04-03T16:47:40.348Z,10.90
2019-04-03T16:50:15.400Z,10.80
2019-04-03T16:52:47.370Z,10.60
2019-04-03T16:55:26.198Z,10.50
2019-04-03T16:57:57.366Z,10.30
2019-04-03T17:00:31.655Z,10.20
2019-04-03T17:03:02.426Z,10.00
2019-04-03T17:05:33.499Z,9.80
2019-04-03T17:08:05.085Z,9.80
2019-04-03T17:10:35.731Z,9.70
2019-04-03T17:13:06.481Z,9.60
2019-04-03T17:15:40.744Z,9.40
2019-04-03T17:18:11.734Z,9.40
2019-04-03T17:20:42.889Z,9.30
2019-04-03T17:23:13.704Z,9.30
2019-04-03T17:25:48.439Z,9.20
2019-04-03T17:28:16.780Z,9.10
2019-04-03T17:30:49.901Z,9.00
2019-04-03T17:33:20.590Z,8.90
2019-04-03T17:35:52.123Z,8.80
2019-04-03T17:38:23.235Z,8.70
2019-04-03T17:40:54.073Z,8.60
2019-04-03T17:43:24.798Z,8.40
2019-04-03T17:45:55.616Z,8.30
2019-04-03T17:48:26.389Z,8.10
2019-04-03T17:50:56.931Z,8.00
2019-04-03T17:53:27.631Z,7.80
2019-04-03T17:55:58.336Z,7.70
2019-04-03T17:58:29.495Z,7.60
2019-04-03T18:01:00.396Z,7.50
2019-04-03T18:03:31.575Z,7.40
2019-04-03T18:06:02.435Z,7.40
2019-04-03T18:08:33.198Z,7.30
2019-04-03T18:11:03.893Z,7.40
2019-04-03T18:13:34.569Z,7.40
2019-04-03T18:16:05.556Z,7.40
2019-04-03T18:18:36.269Z,7.40
2019-04-03T18:21:08.048Z,7.30
2019-04-03T18:23:38.652Z,7.20
2019-04-03T18:26:09.335Z,7.20
2019-04-03T18:28:40.269Z,7.10
2019-04-03T18:31:11.841Z,7.00
2019-04-03T18:33:43.671Z,6.90
2019-04-03T18:36:14.549Z,6.90
2019-04-03T18:38:45.189Z,6.70
2019-04-03T18:41:16.993Z,6.70
2019-04-03T18:43:48.177Z,6.60
2019-04-03T18:46:31.513Z,6.60
2019-04-03T18:48:58.744Z,6.50
2019-04-03T18:51:26.077Z,6.60
2019-04-03T18:53:59.366Z,6.50
2019-04-03T18:56:32.014Z,6.50
2019-04-03T18:59:04.809Z,6.40
2019-04-03T19:01:37.983Z,6.40
2019-04-03T19:04:08.585Z,6.40
2019-04-03T19:06:39.294Z,6.40
2019-04-03T19:09:10.483Z,6.40
2019-04-03T19:11:41.588Z,6.40
2019-04-03T19:14:26.089Z,6.40
2019-04-03T19:16:51.394Z,6.30
2019-04-03T19:19:22.967Z,6.30
2019-04-03T19:21:55.264Z,6.30
2019-04-03T19:24:27.055Z,6.30
2019-04-03T19:26:58.561Z,6.30
2019-04-03T19:29:35.785Z,6.30
2019-04-03T19:32:11.943Z,6.20
2019-04-03T19:34:42.012Z,6.30
2019-04-03T19:37:14.557Z,6.30
2019-04-03T19:39:49.041Z,6.20
2019-04-03T19:42:21.819Z,6.30
2019-04-03T19:44:52.760Z,6.30
2019-04-03T19:47:24.659Z,6.30
2019-04-03T19:50:00.230Z,6.30
2019-04-03T19:52:30.491Z,6.40
2019-04-03T19:55:01.374Z,6.40
2019-04-03T19:57:32.308Z,6.30
2019-04-03T20:00:03.872Z,6.30
2019-04-03T20:02:37.802Z,6.30
2019-04-03T20:05:08.547Z,6.30
2019-04-03T20:07:39.561Z,6.40
2019-04-03T20:10:11.823Z,6.50
2019-04-03T20:12:42.548Z,6.60
2019-04-03T20:15:13.245Z,6.60
2019-04-03T20:17:44.086Z,6.60
2019-04-03T20:20:14.764Z,6.60
2019-04-03T20:22:45.422Z,6.60
2019-04-03T20:25:15.955Z,6.50
2019-04-03T20:27:47.355Z,6.50
2019-04-03T20:30:18.805Z,6.40
2019-04-03T20:32:49.337Z,6.40
2019-04-03T20:35:19.952Z,6.50
2019-04-03T20:37:50.507Z,6.50
2019-04-03T20:40:21.288Z,6.60
2019-04-03T20:42:53.931Z,6.50
2019-04-03T20:45:24.745Z,6.40
2019-04-03T20:47:57.384Z,6.30
2019-04-03T20:50:30.660Z,6.20
2019-04-03T20:53:01.298Z,6.30
2019-04-03T20:55:32.033Z,6.30
2019-04-03T20:58:05.715Z,6.40
2019-04-03T21:00:35.056Z,6.40
2019-04-03T21:03:05.689Z,6.30
2019-04-03T21:05:36.309Z,6.30
2019-04-03T21:08:07.194Z,6.30
2019-04-03T21:10:37.877Z,6.30
2019-04-03T21:13:08.750Z,6.30
2019-04-03T21:15:39.859Z,6.40
2019-04-03T21:18:13.330Z,6.30
2019-04-03T21:20:43.924Z,6.30
2019-04-03T21:23:14.707Z,6.20
2019-04-03T21:25:45.291Z,6.20
2019-04-03T21:28:16.138Z,6.20
2019-04-03T21:30:46.831Z,6.20
2019-04-03T21:33:17.679Z,6.20
2019-04-03T21:35:48.490Z,6.10
2019-04-03T21:38:19.010Z,6.10
2019-04-03T21:40:49.516Z,6.00
2019-04-03T21:43:20.221Z,6.00
2019-04-03T21:45:50.916Z,6.00
2019-04-03T21:48:22.578Z,5.90
2019-04-03T21:50:52.990Z,5.80
2019-04-03T21:53:24.379Z,5.70
2019-04-03T21:55:55.680Z,5.70
2019-04-03T21:58:26.179Z,5.60
2019-04-03T22:01:23.417Z,5.60
2019-04-03T22:03:54.306Z,5.50
2019-04-03T22:06:26.987Z,5.50
2019-04-03T22:09:00.479Z,5.40
2019-04-03T22:11:30.397Z,5.40
2019-04-03T22:14:00.688Z,5.30
2019-04-03T22:16:31.222Z,5.20
2019-04-03T22:19:01.790Z,5.20
2019-04-03T22:21:32.998Z,5.10
2019-04-03T22:24:06.584Z,5.00
2019-04-03T22:26:36.032Z,4.90
2019-04-03T22:29:06.723Z,4.80
2019-04-03T22:31:37.360Z,4.80
2019-04-03T22:34:08.135Z,5.00
2019-04-03T22:36:38.758Z,5.00
2019-04-03T22:39:09.919Z,5.00
2019-04-03T22:41:40.950Z,5.00
2019-04-03T22:44:13.008Z,5.10
2019-04-03T22:46:46.649Z,5.10
2019-04-03T22:49:17.369Z,5.00
2019-04-03T22:51:47.985Z,5.00
2019-04-03T22:54:18.720Z,4.90
2019-04-03T22:56:49.409Z,4.80
2019-04-03T22:59:20.078Z,4.80
2019-04-03T23:01:50.534Z,4.70
2019-04-03T23:04:21.143Z,4.60
2019-04-03T23:06:51.656Z,4.50
2019-04-03T23:09:24.680Z,4.50
2019-04-03T23:11:54.575Z,4.50
2019-04-03T23:14:25.261Z,4.50
2019-04-03T23:16:55.816Z,4.50
2019-04-03T23:19:26.334Z,4.50
2019-04-03T23:21:57.083Z,4.50
2019-04-03T23:24:28.880Z,4.60
2019-04-03T23:27:02.389Z,4.60
2019-04-03T23:29:32.254Z,4.60
2019-04-03T23:32:02.759Z,4.70
2019-04-03T23:34:33.308Z,4.70
2019-04-03T23:37:03.897Z,4.70
2019-04-03T23:39:34.795Z,4.70
2019-04-03T23:42:06.875Z,4.70
2019-04-03T23:44:37.701Z,4.70
2019-04-03T23:47:09.439Z,4.60
2019-04-03T23:49:41.243Z,4.60
2019-04-03T23:52:11.944Z,4.50
2019-04-03T23:54:42.357Z,4.50
2019-04-03T23:57:13.067Z,4.40
2019-04-03T23:59:44.455Z,4.40
